Time;durP1;ratioP1;P1;durP2;ratioP2;P2;SDS_P1;SDS_P2;PMS_P1;PMS_P2;Temp;Humidity;BMP_temperature;BMP_pressure;BME280_temperature;BME280_humidity;BME280_pressure;Samples;Min_cycle;Max_cycle;Signal;HPM_P1;HPM_P2
2023/02/15 00:03:31;;;;;;;27.40;18.80;;;;;;;4.09;79.96;100474.77;221083;1280;22533;-74
2023/02/15 00:08:33;;;;;;;32.50;20.40;;;;;;;4.09;79.93;100473.69;221274;1277;22544;-74
2023/02/15 00:13:41;;;;;;;30.30;21.70;;;;;;;4.08;79.97;100468.55;221110;1263;22537;-74
2023/02/15 00:18:43;;;;;;;35.30;23.90;;;;;;;4.07;80.13;100465.70;221361;1273;25500;-75
2023/02/15 00:23:45;;;;;;;35.40;24.70;;;;;;;4.04;80.04;100465.85;221315;1276;22553;-75
2023/02/15 00:28:47;;;;;;;43.30;26.60;;;;;;;4.04;80.12;100462.21;221203;1280;22568;-74
2023/02/15 00:33:49;;;;;;;35.50;25.10;;;;;;;4.04;80.29;100448.95;221074;1276;22667;-74
2023/02/15 00:38:51;;;;;;;38.80;26.70;;;;;;;4.00;80.29;100441.05;221402;1276;22553;-74
2023/02/15 00:43:54;;;;;;;40.40;27.70;;;;;;;3.93;79.96;100443.44;221199;1280;22622;-74
2023/02/15 00:48:57;;;;;;;40.50;27.50;;;;;;;3.91;80.20;100439.02;221260;1277;22557;-73
2023/02/15 00:53:59;;;;;;;40.20;27.50;;;;;;;3.90;80.30;100434.91;221271;1280;22559;-75
2023/02/15 00:59:01;;;;;;;43.60;27.60;;;;;;;3.91;80.47;100431.37;221222;1278;22554;-75
2023/02/15 01:04:04;;;;;;;40.50;27.80;;;;;;;3.91;80.46;100427.88;221270;1280;22573;-74
2023/02/15 01:09:06;;;;;;;45.50;29.50;;;;;;;3.87;80.35;100425.75;221195;1280;22543;-75
2023/02/15 01:14:14;;;;;;;45.20;30.10;;;;;;;3.84;80.37;100420.35;221422;1278;22555;-73
2023/02/15 01:19:22;;;;;;;50.60;32.20;;;;;;;3.79;80.36;100416.00;221099;1257;25355;-74
2023/02/15 01:24:24;;;;;;;46.30;29.40;;;;;;;3.73;80.32;100410.61;221054;1280;25339;-74
2023/02/15 01:29:40;;;;;;;44.60;30.10;;;;;;;3.67;80.27;100407.95;221100;1256;22563;-74
2023/02/15 01:34:42;;;;;;;44.70;29.40;;;;;;;3.61;80.32;100397.34;221121;1280;22540;-74
2023/02/15 01:39:44;;;;;;;45.90;28.60;;;;;;;3.54;80.52;100392.24;221288;1280;22542;-75
2023/02/15 01:44:49;;;;;;;42.50;28.10;;;;;;;3.47;80.51;100386.09;221333;1275;22527;-75
2023/02/15 01:50:08;;;;;;;42.70;28.10;;;;;;;3.43;80.49;100384.10;221360;1275;24258;-75
2023/02/15 01:55:12;;;;;;;41.40;26.70;;;;;;;3.39;80.59;100384.73;221287;1280;22654;-75
2023/02/15 02:00:16;;;;;;;39.30;26.00;;;;;;;3.36;80.76;100375.36;221069;1280;22584;-74
2023/02/15 02:05:22;;;;;;;39.30;27.80;;;;;;;3.30;80.42;100372.84;221429;1277;24234;-73
2023/02/15 02:10:26;;;;;;;42.20;27.60;;;;;;;3.21;80.80;100366.46;221157;1280;25396;-74
2023/02/15 02:15:34;;;;;;;41.60;28.60;;;;;;;3.10;80.56;100361.06;221504;1280;22480;-74
2023/02/15 02:21:13;;;;;;;41.60;27.90;;;;;;;3.00;80.84;100353.05;221272;1271;22569;-75
2023/02/15 02:26:31;;;;;;;36.30;25.70;;;;;;;2.89;80.88;100346.65;221223;1273;22526;-73
2023/02/15 02:32:01;;;;;;;37.80;25.60;;;;;;;2.83;80.90;100332.79;221404;1278;27480;-74
2023/02/15 02:37:24;;;;;;;33.10;22.90;;;;;;;2.73;80.69;100319.88;221048;1276;22585;-74
2023/02/15 02:42:41;;;;;;;28.50;21.60;;;;;;;2.60;80.89;100313.96;221373;1278;22540;-74
2023/02/15 02:47:52;;;;;;;35.80;23.40;;;;;;;2.51;81.15;100319.80;221161;1265;24321;-75
2023/02/15 02:52:59;;;;;;;35.70;25.40;;;;;;;2.42;81.32;100321.34;221375;1280;22547;-74
2023/02/15 02:58:40;;;;;;;35.60;24.90;;;;;;;2.33;81.23;100316.03;221445;1259;22634;-74
2023/02/15 03:03:57;;;;;;;38.40;26.50;;;;;;;2.21;81.37;100304.64;221284;1273;25350;-74
2023/02/15 03:09:07;;;;;;;30.90;22.50;;;;;;;2.12;81.83;100305.19;221227;1273;22566;-74
2023/02/15 03:14:12;;;;;;;35.40;24.60;;;;;;;2.05;81.95;100309.97;221476;1273;25451;-74
2023/02/15 03:19:36;;;;;;;40.80;26.50;;;;;;;1.97;81.88;100307.70;221340;1280;22591;-74
2023/02/15 03:25:02;;;;;;;29.00;21.40;;;;;;;1.89;82.09;100307.21;221406;1273;23733;-76
2023/02/15 03:30:13;;;;;;;33.00;23.30;;;;;;;1.82;82.06;100310.23;221278;1277;24359;-74
2023/02/15 03:35:15;;;;;;;33.20;22.10;;;;;;;1.75;82.43;100305.97;221460;1280;25341;-75
2023/02/15 03:46:19;;;;;;;35.60;24.40;;;;;;;1.73;82.38;100304.20;221274;1280;22541;-74
2023/02/15 03:51:33;;;;;;;33.80;24.20;;;;;;;1.69;82.70;100312.07;221311;1280;22555;-75
2023/02/15 03:56:38;;;;;;;36.30;24.80;;;;;;;1.66;82.69;100308.95;221250;1278;22589;-74
2023/02/15 04:01:58;;;;;;;39.30;27.40;;;;;;;1.62;82.70;100313.89;221360;1278;22546;-73
2023/02/15 04:07:03;;;;;;;38.80;27.80;;;;;;;1.64;82.78;100310.10;221257;1280;22580;-74
2023/02/15 04:12:05;;;;;;;43.30;31.50;;;;;;;1.67;82.92;100317.36;221275;1277;23266;-75
2023/02/15 04:17:08;;;;;;;39.20;28.80;;;;;;;1.72;83.45;100316.44;221142;1278;22578;-75
2023/02/15 04:27:31;;;;;;;40.00;27.30;;;;;;;1.79;83.04;100318.59;221162;1276;22568;-74
2023/02/15 04:32:34;;;;;;;35.40;25.30;;;;;;;1.83;83.29;100318.00;221245;1280;24266;-74
2023/02/15 04:37:39;;;;;;;35.10;24.90;;;;;;;1.89;83.30;100314.33;221095;1280;22593;-75
2023/02/15 04:42:42;;;;;;;35.60;26.20;;;;;;;1.95;83.32;100319.31;221298;1280;22816;-73
2023/02/15 04:47:44;;;;;;;33.60;24.70;;;;;;;2.01;83.45;100313.55;221295;1280;24297;-74
2023/02/15 04:52:46;;;;;;;33.90;23.20;;;;;;;2.09;83.33;100319.85;221134;1273;22574;-74
2023/02/15 04:57:48;;;;;;;31.60;22.50;;;;;;;2.13;83.32;100315.92;221322;1277;24365;-73
2023/02/15 05:02:50;;;;;;;33.90;22.90;;;;;;;2.15;83.32;100317.36;221174;1257;25393;-74
2023/02/15 05:07:52;;;;;;;28.90;21.40;;;;;;;2.18;83.35;100321.52;221071;1278;22564;-74
2023/02/15 05:12:55;;;;;;;32.80;24.00;;;;;;;2.27;83.53;100320.06;221350;1279;25525;-74
2023/02/15 05:17:57;;;;;;;30.80;23.00;;;;;;;2.31;83.30;100316.19;221135;1280;25441;-75
2023/02/15 05:23:00;;;;;;;31.70;22.60;;;;;;;2.31;83.21;100311.83;221301;1278;22550;-75
2023/02/15 05:28:20;;;;;;;33.90;23.70;;;;;;;2.33;83.23;100308.25;221245;1280;22708;-75
2023/02/15 05:33:23;;;;;;;36.40;25.40;;;;;;;2.32;82.89;100302.52;221320;1273;22751;-75
2023/02/15 05:38:25;;;;;;;35.80;24.10;;;;;;;2.30;83.29;100298.68;221213;1280;22692;-74
2023/02/15 05:43:27;;;;;;;30.10;22.60;;;;;;;2.30;83.35;100302.30;221272;1278;22573;-75
2023/02/15 05:48:30;;;;;;;32.50;23.20;;;;;;;2.32;83.00;100297.02;221102;1279;22716;-75
2023/02/15 05:53:36;;;;;;;31.80;22.90;;;;;;;2.34;83.30;100296.84;221157;1275;22641;-75
2023/02/15 05:58:40;;;;;;;28.10;20.10;;;;;;;2.32;82.98;100297.81;221012;1280;26417;-74
2023/02/15 06:03:43;;;;;;;32.10;22.10;;;;;;;2.30;82.98;100298.86;221330;1274;22542;-74
2023/02/15 06:08:46;;;;;;;31.50;21.00;;;;;;;2.30;83.09;100302.33;221329;1278;22530;-74
2023/02/15 06:13:48;;;;;;;32.80;22.20;;;;;;;2.28;83.11;100302.13;221278;1279;22625;-75
2023/02/15 06:18:50;;;;;;;33.80;23.10;;;;;;;2.27;83.02;100304.63;221193;1278;25464;-74
2023/02/15 06:23:54;;;;;;;32.70;23.60;;;;;;;2.27;83.24;100307.89;221277;1277;23964;-74
2023/02/15 06:28:56;;;;;;;33.70;24.20;;;;;;;2.29;83.43;100311.25;221291;1278;22621;-75
2023/02/15 06:34:02;;;;;;;37.10;25.00;;;;;;;2.27;83.37;100313.65;221323;1277;22551;-75
2023/02/15 06:39:04;;;;;;;39.10;26.60;;;;;;;2.30;83.19;100318.48;221100;1280;23800;-75
2023/02/15 06:44:13;;;;;;;41.90;29.50;;;;;;;2.37;83.52;100320.66;221091;1280;22545;-74
2023/02/15 06:49:18;;;;;;;36.30;25.00;;;;;;;2.46;83.56;100320.41;221367;1275;24679;-73
2023/02/15 06:54:20;;;;;;;40.60;27.80;;;;;;;2.55;83.41;100320.20;221347;1278;22547;-73
2023/02/15 06:59:29;;;;;;;35.40;23.40;;;;;;;2.64;83.57;100314.73;222004;1266;23036;-73
2023/02/15 07:04:33;;;;;;;38.00;26.10;;;;;;;2.73;83.43;100316.73;221992;1259;22530;-73
2023/02/15 07:09:35;;;;;;;38.30;25.80;;;;;;;2.80;83.25;100312.29;221814;1260;25578;-73
2023/02/15 07:14:37;;;;;;;38.60;26.10;;;;;;;2.87;83.02;100306.26;221707;1270;23503;-73
2023/02/15 07:19:39;;;;;;;38.70;26.70;;;;;;;2.96;82.97;100302.70;221914;1268;22534;-74
2023/02/15 07:24:54;;;;;;;39.70;27.90;;;;;;;3.03;82.79;100297.89;222173;1266;22571;-75
2023/02/15 07:30:01;;;;;;;38.70;26.70;;;;;;;3.06;82.65;100298.88;222107;1258;22553;-76
2023/02/15 07:35:03;;;;;;;43.50;28.00;;;;;;;3.11;82.72;100291.93;222003;1270;139366;-76
2023/02/15 07:40:08;;;;;;;42.80;29.40;;;;;;;3.16;82.69;100291.01;222169;1267;139875;-75
2023/02/15 07:45:10;;;;;;;41.10;27.10;;;;;;;3.28;82.72;100289.73;221950;1262;140292;-73
2023/02/15 07:50:13;;;;;;;36.20;24.20;;;;;;;3.44;82.77;100294.86;224350;1267;22548;-76
2023/02/15 07:55:16;;;;;;;38.60;26.60;;;;;;;3.58;82.62;100287.81;221726;1275;138497;-75
2023/02/15 08:00:29;;;;;;;38.60;27.20;;;;;;;3.67;82.28;100288.91;221758;1272;140070;-75
2023/02/15 08:05:36;;;;;;;39.90;26.20;;;;;;;3.79;82.39;100283.91;221810;1272;139015;-75
2023/02/15 08:15:59;;;;;;;36.80;25.10;;;;;;;4.00;82.00;100277.02;221793;1266;138890;-74
2023/02/15 08:21:03;;;;;;;36.30;27.00;;;;;;;4.00;81.60;100273.88;221753;1261;25478;-75
2023/02/15 08:26:06;;;;;;;37.50;24.50;;;;;;;3.97;81.44;100272.21;222120;1262;22641;-75
2023/02/15 08:31:13;;;;;;;42.30;27.20;;;;;;;3.94;81.43;100265.75;221699;1273;138692;-76
2023/02/15 08:36:20;;;;;;;35.90;25.90;;;;;;;3.94;81.53;100261.40;221052;1271;138804;-76
2023/02/15 08:41:38;;;;;;;40.50;28.20;;;;;;;3.98;81.71;100263.02;221569;1268;138846;-75
2023/02/15 08:46:43;;;;;;;43.80;30.10;;;;;;;4.06;81.94;100262.08;221291;1265;138837;-76
2023/02/15 08:51:46;;;;;;;43.80;28.80;;;;;;;4.19;81.97;100253.98;221437;1274;138851;-76
2023/02/15 08:56:49;;;;;;;31.10;22.80;;;;;;;4.38;82.19;100247.86;221561;1266;22582;-75
2023/02/15 09:01:53;;;;;;;32.30;22.50;;;;;;;4.54;81.85;100241.98;221496;1273;138496;-75
2023/02/15 09:06:56;;;;;;;31.40;22.90;;;;;;;4.73;81.77;100238.14;221622;1278;138727;-75
2023/02/15 09:11:59;;;;;;;31.90;22.50;;;;;;;4.94;82.01;100233.73;221420;1257;138965;-76
2023/02/15 09:17:01;;;;;;;31.20;20.80;;;;;;;5.12;81.57;100225.52;221847;1262;139599;-76
2023/02/15 09:22:06;;;;;;;34.90;23.30;;;;;;;5.26;81.00;100223.41;221513;1271;139367;-74
2023/02/15 09:27:08;;;;;;;32.40;23.20;;;;;;;5.44;81.11;100219.24;221517;1260;139237;-74
2023/02/15 09:32:14;;;;;;;28.80;20.70;;;;;;;5.63;81.11;100212.67;221639;1274;22542;-75
2023/02/15 09:37:17;;;;;;;28.10;19.70;;;;;;;5.81;80.69;100209.66;221751;1265;139492;-74
2023/02/15 09:43:04;;;;;;;26.30;18.50;;;;;;;5.96;80.29;100199.50;221689;1265;138851;-75
2023/02/15 09:48:30;;;;;;;27.90;19.50;;;;;;;6.10;79.77;100195.94;221818;1268;138807;-75
2023/02/15 09:53:51;;;;;;;30.30;21.20;;;;;;;6.09;78.28;100197.14;221575;1270;139349;-75
2023/02/15 09:58:58;;;;;;;32.00;21.70;;;;;;;6.06;78.28;100190.69;221556;1272;139263;-75
2023/02/15 10:04:28;;;;;;;30.40;22.00;;;;;;;6.08;77.68;100186.54;221732;1272;138807;-75
2023/02/15 10:09:47;;;;;;;34.60;22.60;;;;;;;6.12;77.65;100176.18;221511;1268;138844;-75
2023/02/15 10:15:24;;;;;;;34.10;22.40;;;;;;;6.23;77.90;100172.69;221611;1272;22524;-75
2023/02/15 10:20:45;;;;;;;33.50;22.00;;;;;;;6.36;77.69;100164.92;221889;1272;22542;-74
2023/02/15 10:26:11;;;;;;;32.00;22.90;;;;;;;6.56;77.86;100162.20;221606;1273;138862;-75
2023/02/15 10:31:27;;;;;;;34.30;23.30;;;;;;;6.81;77.84;100160.63;221649;1266;139026;-75
2023/02/15 10:36:59;;;;;;;30.30;20.00;;;;;;;7.03;77.37;100163.84;221575;1275;138625;-73
2023/02/15 10:42:23;;;;;;;33.50;21.90;;;;;;;7.13;76.46;100160.80;221644;1272;138809;-74
2023/02/15 10:48:03;;;;;;;33.50;22.60;;;;;;;7.20;76.16;100154.66;221718;1273;139294;-74
2023/02/15 10:53:35;;;;;;;36.80;23.40;;;;;;;7.28;75.81;100149.55;221574;1262;139441;-74
2023/02/15 10:59:23;;;;;;;35.90;24.30;;;;;;;7.40;75.86;100149.84;221751;1278;139249;-74
2023/02/15 11:04:53;;;;;;;34.90;23.50;;;;;;;7.43;75.30;100141.38;221150;1278;139326;-77
2023/02/15 11:10:07;;;;;;;36.20;24.70;;;;;;;7.58;75.90;100136.02;221572;1265;139572;-74
2023/02/15 11:15:34;;;;;;;37.50;25.10;;;;;;;7.79;75.66;100129.27;221737;1262;139360;-75
2023/02/15 11:20:50;;;;;;;36.00;24.20;;;;;;;7.93;75.26;100122.19;221912;1275;25284;-74
2023/02/15 11:26:01;;;;;;;35.40;24.40;;;;;;;7.91;73.98;100119.58;221491;1275;138614;-75
2023/02/15 11:31:21;;;;;;;35.60;22.60;;;;;;;7.87;73.04;100115.88;221619;1279;139950;-73
2023/02/15 11:36:39;;;;;;;30.70;21.30;;;;;;;7.93;73.89;100108.66;221142;1280;139726;-75
2023/02/15 11:41:46;;;;;;;28.50;20.50;;;;;;;8.07;73.65;100101.96;221476;1266;139808;-75
2023/02/15 11:46:49;;;;;;;29.90;20.10;;;;;;;8.11;72.74;100094.17;221511;1272;139806;-76
2023/02/15 11:51:56;;;;;;;28.40;18.70;;;;;;;8.21;72.80;100095.80;221342;1275;139859;-76
2023/02/15 11:57:14;;;;;;;26.80;17.80;;;;;;;8.34;72.61;100093.73;221772;1272;25344;-76
2023/02/15 12:02:21;;;;;;;29.10;18.70;;;;;;;8.37;71.57;100086.21;221630;1261;24337;-74
2023/02/15 12:07:31;;;;;;;27.20;18.50;;;;;;;8.34;71.23;100077.41;221742;1275;138372;-75
2023/02/15 12:12:36;;;;;;;31.20;19.10;;;;;;;8.38;71.17;100068.95;221593;1278;137957;-75
2023/02/15 12:17:58;;;;;;;29.40;19.70;;;;;;;8.47;71.20;100065.45;221448;1278;138798;-75
2023/02/15 12:23:07;;;;;;;27.50;18.70;;;;;;;8.61;71.85;100058.67;221647;1280;138744;-75
2023/02/15 12:28:35;;;;;;;28.90;19.10;;;;;;;8.76;71.74;100047.77;221430;1279;138852;-75
2023/02/15 12:33:45;;;;;;;25.00;16.70;;;;;;;8.92;71.04;100042.40;221554;1276;139619;-74
2023/02/15 12:39:19;;;;;;;23.00;17.00;;;;;;;8.98;70.92;100033.58;221778;1278;22556;-73
2023/02/15 12:44:34;;;;;;;20.40;14.40;;;;;;;9.06;70.90;100020.83;221796;1272;22504;-76
2023/02/15 12:49:37;;;;;;;20.20;13.70;;;;;;;9.15;70.73;100013.98;221623;1273;137952;-75
2023/02/15 12:54:41;;;;;;;22.90;15.70;;;;;;;9.21;70.50;100004.47;221623;1278;139024;-75
2023/02/15 12:59:58;;;;;;;26.00;16.10;;;;;;;9.27;69.88;100007.54;221782;1265;138272;-75
2023/02/15 13:05:18;;;;;;;24.00;17.10;;;;;;;9.21;69.64;100002.14;221405;1279;138374;-74
2023/02/15 13:10:25;;;;;;;24.60;17.30;;;;;;;9.25;69.87;99993.86;221302;1280;138342;-74
2023/02/15 13:15:34;;;;;;;23.90;16.90;;;;;;;9.26;68.98;99986.20;221470;1272;139651;-75
2023/02/15 13:20:52;;;;;;;24.80;17.10;;;;;;;9.22;68.72;99979.90;216063;1305;544788;-75
2023/02/15 13:26:02;;;;;;;23.80;16.50;;;;;;;9.18;68.80;99979.22;220544;1269;137031;-75
2023/02/15 13:31:15;;;;;;;27.50;17.80;;;;;;;9.24;69.24;99976.71;219983;1272;184602;-77
2023/02/15 13:36:22;;;;;;;23.00;16.60;;;;;;;9.28;68.86;99968.62;220496;1282;137386;-76
2023/02/15 13:41:33;;;;;;;24.50;17.60;;;;;;;9.31;69.16;99965.63;220785;1267;137999;-76
2023/02/15 13:47:01;;;;;;;23.40;16.90;;;;;;;9.31;68.64;99964.46;221371;1276;137338;-76
2023/02/15 13:52:46;;;;;;;30.70;20.30;;;;;;;9.27;68.93;99959.35;221474;1276;137672;-75
2023/02/15 13:58:16;;;;;;;24.70;17.20;;;;;;;9.30;69.49;99961.03;221116;1276;137363;-76
2023/02/15 14:03:37;;;;;;;25.70;18.70;;;;;;;9.28;69.19;99955.46;221331;1279;137263;-75
2023/02/15 14:08:54;;;;;;;29.90;21.00;;;;;;;9.24;69.25;99953.84;221306;1279;23846;-75
2023/02/15 14:14:09;;;;;;;30.30;20.30;;;;;;;9.17;69.36;99951.40;221633;1263;137764;-74
2023/02/15 14:19:34;;;;;;;31.70;21.60;;;;;;;9.07;68.86;99955.33;221668;1273;137544;-74
2023/02/15 14:24:47;;;;;;;30.20;20.90;;;;;;;8.94;68.51;99948.40;221476;1266;137337;-74
2023/02/15 14:29:59;;;;;;;29.00;20.40;;;;;;;8.78;68.53;99949.88;221276;1275;137689;-75
2023/02/15 14:35:14;;;;;;;28.30;19.00;;;;;;;8.65;68.49;99949.80;221602;1262;137727;-76
2023/02/15 14:41:02;;;;;;;29.70;19.80;;;;;;;8.50;68.23;99951.98;221656;1273;137900;-78
2023/02/15 14:46:31;;;;;;;31.40;21.00;;;;;;;8.29;68.42;99950.09;221894;1273;137307;-76
2023/02/15 14:51:56;;;;;;;24.50;17.20;;;;;;;8.14;68.76;99941.84;221509;1269;137736;-75
2023/02/15 14:57:06;;;;;;;26.30;18.00;;;;;;;7.99;68.58;99945.54;221369;1276;24271;-74
2023/02/15 15:02:08;;;;;;;;;;;;;;;7.84;68.83;99946.87;221820;1263;137942;-76
2023/02/15 15:07:23;;;;;;;24.50;16.60;;;;;;;7.68;68.85;99944.48;221572;1274;24693;-75
2023/02/15 15:12:26;;;;;;;24.90;17.10;;;;;;;7.55;69.20;99941.39;221361;1279;22565;-76
2023/02/15 15:17:31;;;;;;;28.90;18.00;;;;;;;7.41;69.33;99940.53;221269;1280;22535;-75
2023/02/15 15:22:36;;;;;;;26.50;18.20;;;;;;;7.25;69.87;99935.52;221354;1279;22536;-75
2023/02/15 15:27:54;;;;;;;28.00;19.30;;;;;;;7.09;70.32;99934.97;221538;1279;22540;-76
2023/02/15 15:33:03;;;;;;;25.40;18.40;;;;;;;6.93;70.31;99936.64;221406;1279;22538;-77
2023/02/15 15:38:24;;;;;;;25.20;18.10;;;;;;;6.76;70.45;99935.34;221448;1279;24233;-76
2023/02/15 15:43:47;;;;;;;29.10;18.90;;;;;;;6.58;70.25;99936.20;221545;1280;22540;-75
2023/02/15 15:48:51;;;;;;;29.00;19.10;;;;;;;6.40;70.63;99927.80;221331;1280;22537;-75
2023/02/15 15:53:55;;;;;;;29.60;19.60;;;;;;;6.23;71.21;99929.45;221543;1277;24293;-75
2023/02/15 15:59:05;;;;;;;34.30;20.80;;;;;;;6.04;71.43;99921.71;221250;1280;23002;-76
2023/02/15 16:04:13;;;;;;;38.60;23.40;;;;;;;5.84;71.90;99909.74;221410;1280;24263;-75
2023/02/15 16:09:21;;;;;;;39.90;23.50;;;;;;;5.63;72.15;99906.96;221255;1279;25373;-75
2023/02/15 16:14:30;;;;;;;38.90;24.10;;;;;;;5.41;72.50;99907.60;221549;1279;22562;-75
2023/02/15 16:19:36;;;;;;;40.80;24.50;;;;;;;5.21;72.80;99910.27;221224;1279;24230;-75
2023/02/15 16:24:57;;;;;;;44.00;26.10;;;;;;;5.04;73.09;99909.65;221209;1279;22555;-75
2023/02/15 16:30:33;;;;;;;43.60;25.60;;;;;;;4.85;73.55;99911.20;221349;1280;22599;-75
2023/02/15 16:35:38;;;;;;;42.50;25.90;;;;;;;4.65;73.72;99914.36;221296;1280;24111;-76
2023/02/15 16:40:47;;;;;;;47.60;27.40;;;;;;;4.48;74.19;99914.15;221357;1280;22573;-75
2023/02/15 16:45:50;;;;;;;45.20;27.60;;;;;;;4.31;74.57;99916.55;221455;1279;22557;-75
2023/02/15 16:50:56;;;;;;;43.80;27.90;;;;;;;4.15;74.88;99911.85;221151;1279;22661;-76
2023/02/15 16:56:02;;;;;;;47.50;28.70;;;;;;;4.02;74.96;99914.48;221911;1276;22537;-75
2023/02/15 17:01:09;;;;;;;48.60;28.90;;;;;;;3.87;75.13;99914.86;221939;1276;24318;-75
2023/02/15 17:06:29;;;;;;;51.30;30.30;;;;;;;3.75;75.52;99912.35;221825;1276;22540;-76
2023/02/15 17:11:39;;;;;;;55.00;31.30;;;;;;;3.61;75.85;99909.06;221930;1276;26414;-76
2023/02/15 17:16:48;;;;;;;53.40;31.40;;;;;;;3.50;76.08;99909.02;221799;1276;25400;-74
2023/02/15 17:22:03;;;;;;;61.40;32.00;;;;;;;3.40;76.42;99907.67;221794;1272;23803;-75
2023/02/15 17:27:18;;;;;;;55.20;32.30;;;;;;;3.29;76.63;99906.78;221830;1276;23757;-75
2023/02/15 17:32:51;;;;;;;57.00;32.90;;;;;;;3.17;76.87;99904.89;222123;1276;25351;-75
2023/02/15 17:38:30;;;;;;;53.90;31.60;;;;;;;3.05;77.12;99902.99;221896;1273;22528;-75
2023/02/15 17:43:33;;;;;;;64.70;33.00;;;;;;;2.94;77.36;99903.13;221893;1276;24269;-75
2023/02/15 17:48:39;;;;;;;54.50;31.70;;;;;;;2.84;77.71;99907.00;221792;1271;24227;-75
2023/02/15 17:55:34;;;;;;;62.20;34.60;;;;;;;2.74;77.83;99903.52;222009;1272;22582;-75
2023/02/15 17:59:10;;;;;;;65.80;35.80;;;;;;;2.65;78.11;99899.48;222047;1261;24254;-75
2023/02/15 18:14:57;;;;;;;76.30;40.60;;;;;;;2.36;78.81;99894.61;221845;1276;22552;-76
2023/02/15 18:20:04;;;;;;;77.50;41.20;;;;;;;2.28;79.21;99894.31;221892;1273;24253;-75
2023/02/15 18:25:13;;;;;;;71.10;40.50;;;;;;;2.21;79.28;99891.36;221754;1274;22536;-76
2023/02/15 18:30:18;;;;;;;72.50;40.00;;;;;;;2.15;79.36;99882.89;221950;1276;22665;-76
2023/02/15 18:35:23;;;;;;;72.10;41.20;;;;;;;2.08;79.52;99880.59;221809;1270;22589;-75
2023/02/15 18:40:28;;;;;;;74.40;39.40;;;;;;;2.02;79.91;99877.88;221799;1269;23288;-76
2023/02/15 18:45:34;;;;;;;79.60;42.20;;;;;;;1.95;80.18;99878.92;221927;1273;25313;-75
2023/02/15 18:50:37;;;;;;;76.50;40.50;;;;;;;1.88;80.22;99880.13;221831;1276;22595;-77
2023/02/15 18:55:39;;;;;;;74.80;41.10;;;;;;;1.81;80.19;99889.65;221724;1270;24373;-76
2023/02/15 19:00:42;;;;;;;82.30;43.90;;;;;;;1.70;80.44;99887.42;221817;1276;22582;-75
2023/02/15 19:05:46;;;;;;;81.50;42.80;;;;;;;1.60;80.66;99884.97;221825;1276;22647;-76
2023/02/15 19:10:50;;;;;;;84.90;42.30;;;;;;;1.50;80.55;99880.25;221749;1276;22530;-76
2023/02/15 19:15:53;;;;;;;79.20;40.40;;;;;;;1.42;80.75;99882.56;221720;1275;22551;-75
2023/02/15 19:20:55;;;;;;;83.30;43.20;;;;;;;1.36;81.51;99882.57;221756;1276;22549;-75
2023/02/15 19:25:57;;;;;;;74.50;40.90;;;;;;;1.33;81.37;99879.16;221789;1276;22549;-74
2023/02/15 19:30:59;;;;;;;64.50;34.80;;;;;;;1.32;81.76;99872.98;221779;1274;22617;-75
2023/02/15 19:36:05;;;;;;;58.30;32.90;;;;;;;1.35;82.04;99869.27;221863;1276;22527;-75
2023/02/15 19:41:15;;;;;;;59.70;31.80;;;;;;;1.37;82.15;99862.72;221900;1273;25430;-75
2023/02/15 19:46:19;;;;;;;58.70;31.60;;;;;;;1.40;82.31;99850.90;221893;1276;22562;-75
2023/02/15 19:51:22;;;;;;;58.90;31.90;;;;;;;1.46;82.77;99845.86;221895;1270;24126;-75
2023/02/15 19:56:25;;;;;;;55.80;32.20;;;;;;;1.50;82.61;99838.11;221755;1276;22605;-75
2023/02/15 20:01:28;;;;;;;56.20;32.70;;;;;;;1.53;82.79;99834.06;221667;1276;25584;-75
2023/02/15 20:06:31;;;;;;;59.90;32.90;;;;;;;1.54;82.45;99829.64;221760;1276;22622;-75
2023/02/15 20:11:34;;;;;;;58.50;32.10;;;;;;;1.53;82.82;99821.71;221746;1276;23777;-75
2023/02/15 20:16:37;;;;;;;57.30;31.00;;;;;;;1.53;83.01;99815.30;221796;1271;22736;-75
2023/02/15 20:21:41;;;;;;;56.40;30.60;;;;;;;1.53;83.01;99811.65;221607;1275;22529;-75
2023/02/15 20:26:45;;;;;;;58.20;30.50;;;;;;;1.54;82.68;99809.02;221689;1260;22589;-76
2023/02/15 20:31:48;;;;;;;57.60;31.20;;;;;;;1.53;82.91;99803.32;221671;1273;23007;-75
2023/02/15 20:36:53;;;;;;;53.60;29.60;;;;;;;1.52;82.79;99806.02;221735;1276;22633;-75
2023/02/15 20:41:55;;;;;;;51.50;28.70;;;;;;;1.50;83.10;99806.30;221646;1275;22543;-75
2023/02/15 20:47:01;;;;;;;51.90;29.00;;;;;;;1.50;82.92;99804.61;221665;1273;22772;-73
2023/02/15 20:52:19;;;;;;;58.60;30.30;;;;;;;1.49;82.92;99798.63;221784;1275;22543;-75
2023/02/15 20:57:22;;;;;;;54.40;29.40;;;;;;;1.47;83.14;99799.44;221917;1273;22569;-75
2023/02/15 21:02:24;;;;;;;50.80;25.80;;;;;;;1.46;83.06;99801.57;221758;1276;22553;-74
2023/02/15 21:07:27;;;;;;;55.20;29.80;;;;;;;1.45;83.13;99803.21;221724;1270;25354;-75
2023/02/15 21:12:29;;;;;;;59.70;31.60;;;;;;;1.43;83.08;99804.02;221770;1275;25303;-76
2023/02/15 21:17:31;;;;;;;53.30;29.20;;;;;;;1.38;82.78;99801.73;221950;1272;22547;-75
2023/02/15 21:22:34;;;;;;;51.40;27.10;;;;;;;1.35;83.02;99797.83;221767;1276;24219;-75
2023/02/15 21:27:36;;;;;;;55.40;29.50;;;;;;;1.30;83.23;99791.02;221881;1276;22529;-76
2023/02/15 21:32:41;;;;;;;51.40;28.90;;;;;;;1.26;83.08;99789.73;221815;1276;24228;-75
2023/02/15 21:37:46;;;;;;;51.80;27.60;;;;;;;1.22;83.25;99789.50;221764;1276;22659;-75
2023/02/15 21:48:09;;;;;;;53.10;28.90;;;;;;;1.17;83.56;99779.79;221623;1276;22678;-75
2023/02/15 21:53:17;;;;;;;50.00;27.60;;;;;;;1.15;83.58;99778.91;221771;1276;22527;-76
2023/02/15 21:58:23;;;;;;;55.20;29.30;;;;;;;1.11;83.72;99771.16;221841;1276;22534;-75
2023/02/15 22:03:31;;;;;;;51.80;28.30;;;;;;;1.08;83.62;99764.63;221822;1273;25297;-74
2023/02/15 22:08:33;;;;;;;49.70;25.90;;;;;;;1.04;83.66;99766.27;221762;1271;25242;-75
2023/02/15 22:13:40;;;;;;;48.90;26.80;;;;;;;1.02;83.60;99769.19;221723;1276;24215;-75
2023/02/15 22:18:43;;;;;;;53.50;26.50;;;;;;;0.99;83.69;99768.16;221698;1260;25382;-75
2023/02/15 22:23:45;;;;;;;49.10;27.40;;;;;;;0.97;83.52;99763.09;221624;1276;23764;-75
2023/02/15 22:28:48;;;;;;;50.10;26.30;;;;;;;0.94;83.72;99758.60;221808;1270;23245;-75
2023/02/15 22:33:51;;;;;;;50.90;28.80;;;;;;;0.91;83.63;99765.20;221649;1276;24218;-75
2023/02/15 22:38:54;;;;;;;48.10;26.30;;;;;;;0.88;83.77;99761.98;221826;1275;22878;-75
2023/02/15 22:43:56;;;;;;;49.70;27.30;;;;;;;0.85;83.83;99763.05;222026;1276;24224;-75
2023/02/15 22:49:04;;;;;;;47.80;26.40;;;;;;;0.82;83.58;99770.16;221820;1276;22731;-75
2023/02/15 22:54:06;;;;;;;52.20;26.90;;;;;;;0.78;83.83;99765.40;221756;1275;22544;-75
2023/02/15 22:59:25;;;;;;;52.50;27.40;;;;;;;0.75;83.96;99755.73;221693;1267;24240;-74
2023/02/15 23:04:28;;;;;;;54.30;28.10;;;;;;;0.73;83.97;99757.28;221787;1272;22536;-75
2023/02/15 23:09:30;;;;;;;53.30;28.30;;;;;;;0.70;84.04;99753.67;221796;1272;22659;-74
2023/02/15 23:14:35;;;;;;;46.60;25.90;;;;;;;0.67;84.07;99747.96;221633;1276;23305;-74
2023/02/15 23:19:37;;;;;;;51.70;26.30;;;;;;;0.64;84.24;99743.79;221859;1276;22624;-76
2023/02/15 23:24:40;;;;;;;50.30;26.80;;;;;;;0.62;84.24;99742.70;221684;1276;22558;-75
2023/02/15 23:29:42;;;;;;;44.30;25.50;;;;;;;0.61;84.23;99736.00;221718;1272;22779;-75
2023/02/15 23:34:44;;;;;;;49.70;25.30;;;;;;;0.61;84.50;99735.69;221828;1276;22541;-75
2023/02/15 23:45:21;;;;;;;47.50;25.70;;;;;;;0.60;84.51;99730.34;221720;1276;22552;-74
2023/02/15 23:50:27;;;;;;;47.70;25.30;;;;;;;0.61;84.24;99729.45;221615;1275;25398;-73
2023/02/15 23:55:39;;;;;;;46.70;24.30;;;;;;;0.59;84.51;99723.52;221890;1275;22633;-75
